sensor_id;sensor_type;location;lat;lon;timestamp;temperature;humidity
37560;DHT22;23398;50.928;7.084;2024-03-08T00:00:11;6.70;55.10
37560;DHT22;23398;50.928;7.084;2024-03-08T00:02:41;6.60;55.10
37560;DHT22;23398;50.928;7.084;2024-03-08T00:05:08;6.60;55.40
37560;DHT22;23398;50.928;7.084;2024-03-08T00:07:35;6.50;55.50
37560;DHT22;23398;50.928;7.084;2024-03-08T00:10:02;6.50;55.70
37560;DHT22;23398;50.928;7.084;2024-03-08T00:12:28;6.40;55.80
37560;DHT22;23398;50.928;7.084;2024-03-08T00:14:54;6.40;56.00
37560;DHT22;23398;50.928;7.084;2024-03-08T00:17:20;6.30;56.10
37560;DHT22;23398;50.928;7.084;2024-03-08T00:19:50;6.20;56.10
37560;DHT22;23398;50.928;7.084;2024-03-08T00:22:19;6.20;56.20
37560;DHT22;23398;50.928;7.084;2024-03-08T00:24:44;6.10;56.20
37560;DHT22;23398;50.928;7.084;2024-03-08T00:27:10;6.00;56.30
37560;DHT22;23398;50.928;7.084;2024-03-08T00:29:37;6.00;56.40
37560;DHT22;23398;50.928;7.084;2024-03-08T00:32:04;5.90;56.40
37560;DHT22;23398;50.928;7.084;2024-03-08T00:34:30;5.80;56.40
37560;DHT22;23398;50.928;7.084;2024-03-08T00:36:57;5.80;56.60
37560;DHT22;23398;50.928;7.084;2024-03-08T00:39:22;5.70;56.60
37560;DHT22;23398;50.928;7.084;2024-03-08T00:41:48;5.60;56.70
37560;DHT22;23398;50.928;7.084;2024-03-08T00:44:14;5.50;56.60
37560;DHT22;23398;50.928;7.084;2024-03-08T00:46:39;5.50;56.70
37560;DHT22;23398;50.928;7.084;2024-03-08T00:49:05;5.40;56.70
37560;DHT22;23398;50.928;7.084;2024-03-08T00:51:32;5.40;56.90
37560;DHT22;23398;50.928;7.084;2024-03-08T00:53:57;5.30;57.00
37560;DHT22;23398;50.928;7.084;2024-03-08T00:56:23;5.30;57.10
37560;DHT22;23398;50.928;7.084;2024-03-08T00:58:50;5.30;57.20
37560;DHT22;23398;50.928;7.084;2024-03-08T01:01:18;5.30;57.10
37560;DHT22;23398;50.928;7.084;2024-03-08T01:03:44;5.30;57.20
37560;DHT22;23398;50.928;7.084;2024-03-08T01:06:09;5.30;57.40
37560;DHT22;23398;50.928;7.084;2024-03-08T01:08:37;5.30;57.30
37560;DHT22;23398;50.928;7.084;2024-03-08T01:11:04;5.30;57.40
37560;DHT22;23398;50.928;7.084;2024-03-08T01:13:30;5.30;57.30
37560;DHT22;23398;50.928;7.084;2024-03-08T01:15:56;5.30;57.50
37560;DHT22;23398;50.928;7.084;2024-03-08T01:18:21;5.40;57.60
37560;DHT22;23398;50.928;7.084;2024-03-08T01:20:47;5.40;57.40
37560;DHT22;23398;50.928;7.084;2024-03-08T01:23:13;5.40;57.50
37560;DHT22;23398;50.928;7.084;2024-03-08T01:25:39;5.50;57.70
37560;DHT22;23398;50.928;7.084;2024-03-08T01:28:05;5.50;57.80
37560;DHT22;23398;50.928;7.084;2024-03-08T01:30:30;5.50;57.60
37560;DHT22;23398;50.928;7.084;2024-03-08T01:32:58;5.50;57.50
37560;DHT22;23398;50.928;7.084;2024-03-08T01:35:23;5.80;57.90
37560;DHT22;23398;50.928;7.084;2024-03-08T01:37:49;5.60;57.70
37560;DHT22;23398;50.928;7.084;2024-03-08T01:40:15;5.60;57.70
37560;DHT22;23398;50.928;7.084;2024-03-08T01:42:42;5.60;57.50
37560;DHT22;23398;50.928;7.084;2024-03-08T01:45:08;5.70;57.70
37560;DHT22;23398;50.928;7.084;2024-03-08T01:47:34;5.70;57.70
37560;DHT22;23398;50.928;7.084;2024-03-08T01:50:01;5.70;57.70
37560;DHT22;23398;50.928;7.084;2024-03-08T01:52:29;5.70;57.70
37560;DHT22;23398;50.928;7.084;2024-03-08T01:54:59;5.70;57.50
37560;DHT22;23398;50.928;7.084;2024-03-08T01:57:26;5.80;57.60
37560;DHT22;23398;50.928;7.084;2024-03-08T01:59:52;5.80;57.40
37560;DHT22;23398;50.928;7.084;2024-03-08T02:02:21;5.80;57.40
37560;DHT22;23398;50.928;7.084;2024-03-08T02:04:48;5.80;57.60
37560;DHT22;23398;50.928;7.084;2024-03-08T02:07:13;5.90;57.80
37560;DHT22;23398;50.928;7.084;2024-03-08T02:09:39;5.90;57.50
37560;DHT22;23398;50.928;7.084;2024-03-08T02:12:05;5.90;57.60
37560;DHT22;23398;50.928;7.084;2024-03-08T02:14:31;5.90;57.60
37560;DHT22;23398;50.928;7.084;2024-03-08T02:17:00;6.00;57.70
37560;DHT22;23398;50.928;7.084;2024-03-08T02:19:26;6.00;57.60
37560;DHT22;23398;50.928;7.084;2024-03-08T02:21:51;6.00;58.10
37560;DHT22;23398;50.928;7.084;2024-03-08T02:24:17;6.00;57.60
37560;DHT22;23398;50.928;7.084;2024-03-08T02:26:43;6.00;57.50
37560;DHT22;23398;50.928;7.084;2024-03-08T02:29:09;6.00;57.50
37560;DHT22;23398;50.928;7.084;2024-03-08T02:31:35;6.00;57.40
37560;DHT22;23398;50.928;7.084;2024-03-08T02:34:00;6.00;57.40
37560;DHT22;23398;50.928;7.084;2024-03-08T02:36:26;6.00;57.40
37560;DHT22;23398;50.928;7.084;2024-03-08T02:38:51;6.00;57.50
37560;DHT22;23398;50.928;7.084;2024-03-08T02:41:17;6.00;57.40
37560;DHT22;23398;50.928;7.084;2024-03-08T02:43:42;6.00;57.40
37560;DHT22;23398;50.928;7.084;2024-03-08T02:46:09;6.00;57.40
37560;DHT22;23398;50.928;7.084;2024-03-08T02:48:35;6.00;57.40
37560;DHT22;23398;50.928;7.084;2024-03-08T02:51:00;6.00;57.40
37560;DHT22;23398;50.928;7.084;2024-03-08T02:53:27;6.00;57.40
37560;DHT22;23398;50.928;7.084;2024-03-08T02:55:53;6.00;57.40
37560;DHT22;23398;50.928;7.084;2024-03-08T02:58:19;6.00;57.40
37560;DHT22;23398;50.928;7.084;2024-03-08T03:00:44;6.00;57.60
37560;DHT22;23398;50.928;7.084;2024-03-08T03:03:10;6.00;57.40
37560;DHT22;23398;50.928;7.084;2024-03-08T03:05:35;6.00;57.40
37560;DHT22;23398;50.928;7.084;2024-03-08T03:08:01;5.90;57.40
37560;DHT22;23398;50.928;7.084;2024-03-08T03:10:29;6.10;57.60
37560;DHT22;23398;50.928;7.084;2024-03-08T03:12:54;5.90;57.30
37560;DHT22;23398;50.928;7.084;2024-03-08T03:15:20;5.90;57.40
37560;DHT22;23398;50.928;7.084;2024-03-08T03:17:50;5.90;57.40
37560;DHT22;23398;50.928;7.084;2024-03-08T03:20:19;5.90;57.40
37560;DHT22;23398;50.928;7.084;2024-03-08T03:22:51;5.90;57.30
37560;DHT22;23398;50.928;7.084;2024-03-08T03:25:20;5.90;57.30
37560;DHT22;23398;50.928;7.084;2024-03-08T03:27:51;5.80;57.40
37560;DHT22;23398;50.928;7.084;2024-03-08T03:30:17;5.90;57.30
37560;DHT22;23398;50.928;7.084;2024-03-08T03:32:51;5.90;57.40
37560;DHT22;23398;50.928;7.084;2024-03-08T03:35:21;5.90;57.40
37560;DHT22;23398;50.928;7.084;2024-03-08T03:37:47;6.00;57.40
37560;DHT22;23398;50.928;7.084;2024-03-08T03:40:36;5.90;57.50
37560;DHT22;23398;50.928;7.084;2024-03-08T03:43:02;5.90;57.40
37560;DHT22;23398;50.928;7.084;2024-03-08T03:45:28;5.90;57.40
37560;DHT22;23398;50.928;7.084;2024-03-08T03:47:54;5.90;57.50
37560;DHT22;23398;50.928;7.084;2024-03-08T03:50:20;5.90;57.50
37560;DHT22;23398;50.928;7.084;2024-03-08T03:52:46;5.90;58.00
37560;DHT22;23398;50.928;7.084;2024-03-08T03:55:13;5.90;57.50
37560;DHT22;23398;50.928;7.084;2024-03-08T03:57:39;5.90;57.50
37560;DHT22;23398;50.928;7.084;2024-03-08T04:00:05;5.90;57.50
37560;DHT22;23398;50.928;7.084;2024-03-08T04:02:31;5.90;57.40
37560;DHT22;23398;50.928;7.084;2024-03-08T04:04:57;5.90;57.50
37560;DHT22;23398;50.928;7.084;2024-03-08T04:07:22;5.90;57.60
37560;DHT22;23398;50.928;7.084;2024-03-08T04:09:48;5.90;57.60
37560;DHT22;23398;50.928;7.084;2024-03-08T04:12:13;5.90;57.50
37560;DHT22;23398;50.928;7.084;2024-03-08T04:14:42;5.90;57.60
37560;DHT22;23398;50.928;7.084;2024-03-08T04:17:08;5.90;57.50
37560;DHT22;23398;50.928;7.084;2024-03-08T04:19:38;5.90;57.50
37560;DHT22;23398;50.928;7.084;2024-03-08T04:22:05;6.00;57.70
37560;DHT22;23398;50.928;7.084;2024-03-08T04:24:33;5.90;57.60
37560;DHT22;23398;50.928;7.084;2024-03-08T04:26:58;5.90;57.60
37560;DHT22;23398;50.928;7.084;2024-03-08T04:29:24;5.80;57.50
37560;DHT22;23398;50.928;7.084;2024-03-08T04:31:50;5.80;57.60
37560;DHT22;23398;50.928;7.084;2024-03-08T04:34:20;5.80;57.60
37560;DHT22;23398;50.928;7.084;2024-03-08T04:36:47;5.80;57.60
37560;DHT22;23398;50.928;7.084;2024-03-08T04:39:13;5.80;57.60
37560;DHT22;23398;50.928;7.084;2024-03-08T04:41:39;5.80;57.60
37560;DHT22;23398;50.928;7.084;2024-03-08T04:44:05;5.80;57.60
37560;DHT22;23398;50.928;7.084;2024-03-08T04:46:31;5.80;57.60
37560;DHT22;23398;50.928;7.084;2024-03-08T04:48:56;5.80;57.80
37560;DHT22;23398;50.928;7.084;2024-03-08T04:51:24;5.80;57.60
37560;DHT22;23398;50.928;7.084;2024-03-08T04:53:50;5.80;57.60
37560;DHT22;23398;50.928;7.084;2024-03-08T04:56:16;5.80;57.80
37560;DHT22;23398;50.928;7.084;2024-03-08T04:58:41;5.80;57.80
37560;DHT22;23398;50.928;7.084;2024-03-08T05:01:07;5.80;57.70
37560;DHT22;23398;50.928;7.084;2024-03-08T05:03:35;5.80;57.70
37560;DHT22;23398;50.928;7.084;2024-03-08T05:06:01;5.80;57.70
37560;DHT22;23398;50.928;7.084;2024-03-08T05:08:26;5.80;57.70
37560;DHT22;23398;50.928;7.084;2024-03-08T05:10:52;5.80;57.80
37560;DHT22;23398;50.928;7.084;2024-03-08T05:13:17;5.80;57.80
37560;DHT22;23398;50.928;7.084;2024-03-08T05:15:44;5.80;57.80
37560;DHT22;23398;50.928;7.084;2024-03-08T05:18:13;5.80;58.00
37560;DHT22;23398;50.928;7.084;2024-03-08T05:20:40;5.80;58.10
37560;DHT22;23398;50.928;7.084;2024-03-08T05:23:06;5.80;58.10
37560;DHT22;23398;50.928;7.084;2024-03-08T05:25:32;5.80;57.90
37560;DHT22;23398;50.928;7.084;2024-03-08T05:27:57;5.80;57.90
37560;DHT22;23398;50.928;7.084;2024-03-08T05:30:23;5.60;57.70
37560;DHT22;23398;50.928;7.084;2024-03-08T05:32:49;5.80;57.90
37560;DHT22;23398;50.928;7.084;2024-03-08T05:35:14;5.70;57.80
37560;DHT22;23398;50.928;7.084;2024-03-08T05:37:41;5.80;58.00
37560;DHT22;23398;50.928;7.084;2024-03-08T05:40:08;5.70;57.90
37560;DHT22;23398;50.928;7.084;2024-03-08T05:42:37;5.70;58.00
37560;DHT22;23398;50.928;7.084;2024-03-08T05:45:05;5.70;58.00
37560;DHT22;23398;50.928;7.084;2024-03-08T05:47:32;5.70;58.00
37560;DHT22;23398;50.928;7.084;2024-03-08T05:49:58;5.70;58.10
37560;DHT22;23398;50.928;7.084;2024-03-08T05:52:24;5.70;58.10
37560;DHT22;23398;50.928;7.084;2024-03-08T05:54:51;5.70;58.10
37560;DHT22;23398;50.928;7.084;2024-03-08T05:57:17;5.70;58.20
37560;DHT22;23398;50.928;7.084;2024-03-08T05:59:43;5.70;58.20
37560;DHT22;23398;50.928;7.084;2024-03-08T06:02:08;5.70;58.20
37560;DHT22;23398;50.928;7.084;2024-03-08T06:04:34;5.60;58.30
37560;DHT22;23398;50.928;7.084;2024-03-08T06:06:59;5.70;58.40
37560;DHT22;23398;50.928;7.084;2024-03-08T06:09:25;5.60;58.30
37560;DHT22;23398;50.928;7.084;2024-03-08T06:11:52;5.60;58.40
37560;DHT22;23398;50.928;7.084;2024-03-08T06:14:19;5.60;58.30
37560;DHT22;23398;50.928;7.084;2024-03-08T06:16:45;5.60;58.40
37560;DHT22;23398;50.928;7.084;2024-03-08T06:19:11;5.60;58.50
37560;DHT22;23398;50.928;7.084;2024-03-08T06:21:37;5.60;58.60
37560;DHT22;23398;50.928;7.084;2024-03-08T06:24:03;5.60;58.70
37560;DHT22;23398;50.928;7.084;2024-03-08T06:26:28;5.60;58.70
37560;DHT22;23398;50.928;7.084;2024-03-08T06:28:54;5.60;58.70
37560;DHT22;23398;50.928;7.084;2024-03-08T06:31:20;5.60;58.70
37560;DHT22;23398;50.928;7.084;2024-03-08T06:33:46;5.60;58.70
37560;DHT22;23398;50.928;7.084;2024-03-08T06:36:11;5.70;58.80
37560;DHT22;23398;50.928;7.084;2024-03-08T06:38:40;5.70;58.80
37560;DHT22;23398;50.928;7.084;2024-03-08T06:41:11;5.70;58.80
37560;DHT22;23398;50.928;7.084;2024-03-08T06:43:46;5.70;58.90
37560;DHT22;23398;50.928;7.084;2024-03-08T06:46:15;5.80;59.00
37560;DHT22;23398;50.928;7.084;2024-03-08T06:48:40;5.80;58.90
37560;DHT22;23398;50.928;7.084;2024-03-08T06:51:06;5.90;59.10
37560;DHT22;23398;50.928;7.084;2024-03-08T06:53:32;6.00;59.30
37560;DHT22;23398;50.928;7.084;2024-03-08T06:55:58;6.00;59.00
37560;DHT22;23398;50.928;7.084;2024-03-08T06:58:24;6.10;59.00
37560;DHT22;23398;50.928;7.084;2024-03-08T07:00:50;6.10;58.90
37560;DHT22;23398;50.928;7.084;2024-03-08T07:03:18;6.20;59.00
37560;DHT22;23398;50.928;7.084;2024-03-08T07:05:44;6.30;59.00
37560;DHT22;23398;50.928;7.084;2024-03-08T07:08:10;6.40;59.20
37560;DHT22;23398;50.928;7.084;2024-03-08T07:10:35;6.50;59.10
37560;DHT22;23398;50.928;7.084;2024-03-08T07:13:02;6.50;59.10
37560;DHT22;23398;50.928;7.084;2024-03-08T07:15:28;6.70;59.20
37560;DHT22;23398;50.928;7.084;2024-03-08T07:17:54;6.80;59.30
37560;DHT22;23398;50.928;7.084;2024-03-08T07:20:20;6.90;59.30
37560;DHT22;23398;50.928;7.084;2024-03-08T07:22:46;7.00;59.40
37560;DHT22;23398;50.928;7.084;2024-03-08T07:25:18;7.20;59.60
37560;DHT22;23398;50.928;7.084;2024-03-08T07:27:51;7.40;60.00
37560;DHT22;23398;50.928;7.084;2024-03-08T07:30:18;7.70;60.70
37560;DHT22;23398;50.928;7.084;2024-03-08T07:33:02;8.00;61.40
37560;DHT22;23398;50.928;7.084;2024-03-08T07:35:28;8.40;62.00
37560;DHT22;23398;50.928;7.084;2024-03-08T07:37:54;8.90;62.30
37560;DHT22;23398;50.928;7.084;2024-03-08T07:40:21;9.50;62.10
37560;DHT22;23398;50.928;7.084;2024-03-08T07:42:47;10.10;60.60
37560;DHT22;23398;50.928;7.084;2024-03-08T07:45:12;10.70;60.40
37560;DHT22;23398;50.928;7.084;2024-03-08T07:47:38;11.40;59.80
37560;DHT22;23398;50.928;7.084;2024-03-08T07:50:05;12.10;59.40
37560;DHT22;23398;50.928;7.084;2024-03-08T07:52:34;12.70;58.40
37560;DHT22;23398;50.928;7.084;2024-03-08T07:55:00;13.30;57.80
37560;DHT22;23398;50.928;7.084;2024-03-08T07:57:25;13.90;57.20
37560;DHT22;23398;50.928;7.084;2024-03-08T07:59:52;14.50;57.00
37560;DHT22;23398;50.928;7.084;2024-03-08T08:02:17;15.10;56.10
37560;DHT22;23398;50.928;7.084;2024-03-08T08:04:43;15.70;55.30
37560;DHT22;23398;50.928;7.084;2024-03-08T08:07:10;16.20;54.70
37560;DHT22;23398;50.928;7.084;2024-03-08T08:09:36;16.70;53.70
37560;DHT22;23398;50.928;7.084;2024-03-08T08:12:03;17.20;53.10
37560;DHT22;23398;50.928;7.084;2024-03-08T08:14:29;17.60;52.40
37560;DHT22;23398;50.928;7.084;2024-03-08T08:16:56;18.10;51.80
37560;DHT22;23398;50.928;7.084;2024-03-08T08:19:23;18.40;51.10
37560;DHT22;23398;50.928;7.084;2024-03-08T08:21:48;18.80;51.00
37560;DHT22;23398;50.928;7.084;2024-03-08T08:24:14;19.10;49.80
37560;DHT22;23398;50.928;7.084;2024-03-08T08:26:40;19.40;48.80
37560;DHT22;23398;50.928;7.084;2024-03-08T08:29:06;19.60;48.60
37560;DHT22;23398;50.928;7.084;2024-03-08T08:31:32;19.80;47.90
37560;DHT22;23398;50.928;7.084;2024-03-08T08:33:58;19.90;47.30
37560;DHT22;23398;50.928;7.084;2024-03-08T08:36:25;20.30;47.90
37560;DHT22;23398;50.928;7.084;2024-03-08T08:38:51;20.50;47.50
37560;DHT22;23398;50.928;7.084;2024-03-08T08:41:19;20.70;47.70
37560;DHT22;23398;50.928;7.084;2024-03-08T08:43:46;21.10;46.50
37560;DHT22;23398;50.928;7.084;2024-03-08T08:46:12;21.30;45.90
37560;DHT22;23398;50.928;7.084;2024-03-08T08:48:41;21.50;46.70
37560;DHT22;23398;50.928;7.084;2024-03-08T08:51:10;21.80;45.40
37560;DHT22;23398;50.928;7.084;2024-03-08T08:53:39;22.00;44.70
37560;DHT22;23398;50.928;7.084;2024-03-08T08:56:13;22.20;44.10
37560;DHT22;23398;50.928;7.084;2024-03-08T08:58:42;22.30;43.80
37560;DHT22;23398;50.928;7.084;2024-03-08T09:01:08;22.40;43.10
37560;DHT22;23398;50.928;7.084;2024-03-08T09:03:36;22.50;42.90
37560;DHT22;23398;50.928;7.084;2024-03-08T09:06:03;22.70;43.10
37560;DHT22;23398;50.928;7.084;2024-03-08T09:08:29;22.80;42.30
37560;DHT22;23398;50.928;7.084;2024-03-08T09:10:55;22.90;41.90
37560;DHT22;23398;50.928;7.084;2024-03-08T09:13:21;23.10;42.00
37560;DHT22;23398;50.928;7.084;2024-03-08T09:15:46;23.10;41.50
37560;DHT22;23398;50.928;7.084;2024-03-08T09:18:12;23.10;41.20
37560;DHT22;23398;50.928;7.084;2024-03-08T09:20:37;23.20;41.50
37560;DHT22;23398;50.928;7.084;2024-03-08T09:23:03;23.40;41.60
37560;DHT22;23398;50.928;7.084;2024-03-08T09:25:29;23.60;41.60
37560;DHT22;23398;50.928;7.084;2024-03-08T09:27:55;23.80;41.30
37560;DHT22;23398;50.928;7.084;2024-03-08T09:30:21;24.10;41.50
37560;DHT22;23398;50.928;7.084;2024-03-08T09:32:47;24.30;40.80
37560;DHT22;23398;50.928;7.084;2024-03-08T09:35:13;24.50;40.20
37560;DHT22;23398;50.928;7.084;2024-03-08T09:37:39;24.70;39.80
37560;DHT22;23398;50.928;7.084;2024-03-08T09:40:05;24.80;39.00
37560;DHT22;23398;50.928;7.084;2024-03-08T09:42:35;24.80;38.60
37560;DHT22;23398;50.928;7.084;2024-03-08T09:45:10;24.80;38.40
37560;DHT22;23398;50.928;7.084;2024-03-08T09:47:38;24.80;38.10
37560;DHT22;23398;50.928;7.084;2024-03-08T09:50:08;24.90;38.00
37560;DHT22;23398;50.928;7.084;2024-03-08T09:52:41;24.90;37.50
37560;DHT22;23398;50.928;7.084;2024-03-08T09:55:09;24.90;37.70
37560;DHT22;23398;50.928;7.084;2024-03-08T09:57:37;24.80;37.60
37560;DHT22;23398;50.928;7.084;2024-03-08T10:00:04;24.80;37.00
37560;DHT22;23398;50.928;7.084;2024-03-08T10:02:45;24.80;37.20
37560;DHT22;23398;50.928;7.084;2024-03-08T10:05:12;24.80;37.50
37560;DHT22;23398;50.928;7.084;2024-03-08T10:07:39;24.80;37.20
37560;DHT22;23398;50.928;7.084;2024-03-08T10:10:05;24.80;37.30
37560;DHT22;23398;50.928;7.084;2024-03-08T10:12:31;24.10;36.60
37560;DHT22;23398;50.928;7.084;2024-03-08T10:14:58;24.90;36.90
37560;DHT22;23398;50.928;7.084;2024-03-08T10:17:24;24.90;36.40
37560;DHT22;23398;50.928;7.084;2024-03-08T10:19:51;24.90;35.90
37560;DHT22;23398;50.928;7.084;2024-03-08T10:22:18;24.80;35.60
37560;DHT22;23398;50.928;7.084;2024-03-08T10:24:46;24.60;35.50
37560;DHT22;23398;50.928;7.084;2024-03-08T10:27:11;24.40;35.70
37560;DHT22;23398;50.928;7.084;2024-03-08T10:29:37;24.10;35.90
37560;DHT22;23398;50.928;7.084;2024-03-08T10:32:04;23.90;36.20
37560;DHT22;23398;50.928;7.084;2024-03-08T10:34:32;23.70;36.40
37560;DHT22;23398;50.928;7.084;2024-03-08T10:37:05;23.60;36.40
37560;DHT22;23398;50.928;7.084;2024-03-08T10:39:37;23.30;36.00
37560;DHT22;23398;50.928;7.084;2024-03-08T10:42:04;23.00;35.60
37560;DHT22;23398;50.928;7.084;2024-03-08T10:47:09;22.30;34.70
37560;DHT22;23398;50.928;7.084;2024-03-08T10:49:55;21.70;34.50
37560;DHT22;23398;50.928;7.084;2024-03-08T10:52:21;21.10;34.70
37560;DHT22;23398;50.928;7.084;2024-03-08T10:54:48;20.60;35.00
37560;DHT22;23398;50.928;7.084;2024-03-08T10:57:18;19.90;35.10
37560;DHT22;23398;50.928;7.084;2024-03-08T10:59:46;19.30;35.50
37560;DHT22;23398;50.928;7.084;2024-03-08T11:02:12;18.80;35.90
37560;DHT22;23398;50.928;7.084;2024-03-08T11:04:38;18.30;36.50
37560;DHT22;23398;50.928;7.084;2024-03-08T11:07:04;17.90;37.00
37560;DHT22;23398;50.928;7.084;2024-03-08T11:09:36;17.50;37.30
37560;DHT22;23398;50.928;7.084;2024-03-08T11:12:23;17.10;37.40
37560;DHT22;23398;50.928;7.084;2024-03-08T11:15:01;16.80;37.80
37560;DHT22;23398;50.928;7.084;2024-03-08T11:17:41;16.50;38.20
37560;DHT22;23398;50.928;7.084;2024-03-08T11:20:14;16.20;38.40
37560;DHT22;23398;50.928;7.084;2024-03-08T11:22:42;16.00;38.60
37560;DHT22;23398;50.928;7.084;2024-03-08T11:25:36;15.80;38.90
37560;DHT22;23398;50.928;7.084;2024-03-08T11:33:30;15.30;39.60
37560;DHT22;23398;50.928;7.084;2024-03-08T11:36:12;15.20;40.00
37560;DHT22;23398;50.928;7.084;2024-03-08T11:38:42;15.10;40.10
37560;DHT22;23398;50.928;7.084;2024-03-08T11:41:09;15.00;40.40
37560;DHT22;23398;50.928;7.084;2024-03-08T11:43:38;14.90;40.60
37560;DHT22;23398;50.928;7.084;2024-03-08T11:46:11;14.80;40.70
37560;DHT22;23398;50.928;7.084;2024-03-08T11:48:46;14.80;40.90
37560;DHT22;23398;50.928;7.084;2024-03-08T11:51:13;14.80;41.00
37560;DHT22;23398;50.928;7.084;2024-03-08T11:53:40;14.80;41.10
37560;DHT22;23398;50.928;7.084;2024-03-08T11:56:07;14.70;41.20
37560;DHT22;23398;50.928;7.084;2024-03-08T11:58:33;14.70;41.10
37560;DHT22;23398;50.928;7.084;2024-03-08T12:01:11;14.70;41.30
37560;DHT22;23398;50.928;7.084;2024-03-08T12:03:42;14.70;41.20
37560;DHT22;23398;50.928;7.084;2024-03-08T12:06:08;14.70;41.30
37560;DHT22;23398;50.928;7.084;2024-03-08T12:08:35;14.70;41.40
37560;DHT22;23398;50.928;7.084;2024-03-08T12:11:01;14.70;41.40
37560;DHT22;23398;50.928;7.084;2024-03-08T12:13:31;14.70;41.40
37560;DHT22;23398;50.928;7.084;2024-03-08T12:15:58;14.70;41.40
37560;DHT22;23398;50.928;7.084;2024-03-08T12:18:29;14.70;41.60
37560;DHT22;23398;50.928;7.084;2024-03-08T12:21:09;14.80;41.70
37560;DHT22;23398;50.928;7.084;2024-03-08T12:23:35;14.70;41.60
37560;DHT22;23398;50.928;7.084;2024-03-08T12:26:15;14.70;41.70
37560;DHT22;23398;50.928;7.084;2024-03-08T12:28:45;14.80;41.70
37560;DHT22;23398;50.928;7.084;2024-03-08T12:31:13;14.80;41.60
37560;DHT22;23398;50.928;7.084;2024-03-08T12:33:52;14.80;41.80
37560;DHT22;23398;50.928;7.084;2024-03-08T12:36:20;14.80;41.60
37560;DHT22;23398;50.928;7.084;2024-03-08T12:38:47;14.80;41.90
37560;DHT22;23398;50.928;7.084;2024-03-08T12:41:19;14.80;41.90
37560;DHT22;23398;50.928;7.084;2024-03-08T12:43:45;14.80;41.80
37560;DHT22;23398;50.928;7.084;2024-03-08T12:46:17;14.90;42.00
37560;DHT22;23398;50.928;7.084;2024-03-08T12:48:45;14.90;42.00
37560;DHT22;23398;50.928;7.084;2024-03-08T12:51:16;14.90;42.00
37560;DHT22;23398;50.928;7.084;2024-03-08T12:53:42;14.90;42.00
37560;DHT22;23398;50.928;7.084;2024-03-08T12:56:10;15.00;42.10
37560;DHT22;23398;50.928;7.084;2024-03-08T12:58:36;15.00;41.80
37560;DHT22;23398;50.928;7.084;2024-03-08T13:01:02;15.00;41.90
37560;DHT22;23398;50.928;7.084;2024-03-08T13:03:30;15.10;41.90
37560;DHT22;23398;50.928;7.084;2024-03-08T13:05:57;15.10;41.80
37560;DHT22;23398;50.928;7.084;2024-03-08T13:08:22;15.10;41.80
37560;DHT22;23398;50.928;7.084;2024-03-08T13:10:50;15.10;41.90
37560;DHT22;23398;50.928;7.084;2024-03-08T13:13:16;15.10;41.80
37560;DHT22;23398;50.928;7.084;2024-03-08T13:15:42;15.10;41.90
37560;DHT22;23398;50.928;7.084;2024-03-08T13:18:08;15.20;41.80
37560;DHT22;23398;50.928;7.084;2024-03-08T13:20:35;15.10;41.80
37560;DHT22;23398;50.928;7.084;2024-03-08T13:23:06;15.20;41.80
37560;DHT22;23398;50.928;7.084;2024-03-08T13:25:33;15.00;40.80
37560;DHT22;23398;50.928;7.084;2024-03-08T13:27:59;15.10;41.60
37560;DHT22;23398;50.928;7.084;2024-03-08T13:30:26;15.00;40.70
37560;DHT22;23398;50.928;7.084;2024-03-08T13:32:52;15.10;41.60
37560;DHT22;23398;50.928;7.084;2024-03-08T13:35:18;15.10;41.60
37560;DHT22;23398;50.928;7.084;2024-03-08T13:37:50;15.20;41.60
37560;DHT22;23398;50.928;7.084;2024-03-08T13:40:16;15.20;41.50
37560;DHT22;23398;50.928;7.084;2024-03-08T13:42:48;15.20;41.50
37560;DHT22;23398;50.928;7.084;2024-03-08T13:45:15;15.20;41.30
37560;DHT22;23398;50.928;7.084;2024-03-08T13:47:43;15.20;41.30
37560;DHT22;23398;50.928;7.084;2024-03-08T13:50:10;15.30;41.40
37560;DHT22;23398;50.928;7.084;2024-03-08T13:52:38;15.30;41.50
37560;DHT22;23398;50.928;7.084;2024-03-08T13:55:04;15.20;41.20
37560;DHT22;23398;50.928;7.084;2024-03-08T13:57:31;15.20;41.30
37560;DHT22;23398;50.928;7.084;2024-03-08T13:59:57;15.20;41.50
37560;DHT22;23398;50.928;7.084;2024-03-08T14:02:23;15.20;41.60
37560;DHT22;23398;50.928;7.084;2024-03-08T14:04:56;15.30;41.80
37560;DHT22;23398;50.928;7.084;2024-03-08T14:07:22;15.20;41.70
37560;DHT22;23398;50.928;7.084;2024-03-08T14:09:49;15.20;41.70
37560;DHT22;23398;50.928;7.084;2024-03-08T14:12:15;15.30;41.80
37560;DHT22;23398;50.928;7.084;2024-03-08T14:14:43;15.30;41.90
37560;DHT22;23398;50.928;7.084;2024-03-08T14:17:10;15.30;41.90
37560;DHT22;23398;50.928;7.084;2024-03-08T14:19:36;15.30;41.80
37560;DHT22;23398;50.928;7.084;2024-03-08T14:22:02;15.30;41.80
37560;DHT22;23398;50.928;7.084;2024-03-08T14:24:30;15.10;41.40
37560;DHT22;23398;50.928;7.084;2024-03-08T14:26:56;15.10;41.90
37560;DHT22;23398;50.928;7.084;2024-03-08T14:29:27;15.20;42.20
37560;DHT22;23398;50.928;7.084;2024-03-08T14:31:55;15.20;42.10
37560;DHT22;23398;50.928;7.084;2024-03-08T14:34:25;15.20;42.10
37560;DHT22;23398;50.928;7.084;2024-03-08T14:36:55;15.20;42.10
37560;DHT22;23398;50.928;7.084;2024-03-08T14:39:21;15.20;42.20
37560;DHT22;23398;50.928;7.084;2024-03-08T14:41:50;15.20;42.10
37560;DHT22;23398;50.928;7.084;2024-03-08T14:44:19;15.20;41.90
37560;DHT22;23398;50.928;7.084;2024-03-08T14:46:45;15.30;42.00
37560;DHT22;23398;50.928;7.084;2024-03-08T14:49:11;15.20;42.00
37560;DHT22;23398;50.928;7.084;2024-03-08T14:51:37;15.20;42.10
37560;DHT22;23398;50.928;7.084;2024-03-08T14:54:02;15.20;42.20
37560;DHT22;23398;50.928;7.084;2024-03-08T14:56:34;15.30;42.40
37560;DHT22;23398;50.928;7.084;2024-03-08T14:59:00;15.30;42.40
37560;DHT22;23398;50.928;7.084;2024-03-08T15:01:26;15.30;42.40
37560;DHT22;23398;50.928;7.084;2024-03-08T15:03:55;15.30;42.40
37560;DHT22;23398;50.928;7.084;2024-03-08T15:06:21;15.30;42.50
37560;DHT22;23398;50.928;7.084;2024-03-08T15:08:48;15.30;42.50
37560;DHT22;23398;50.928;7.084;2024-03-08T15:11:13;15.30;42.50
37560;DHT22;23398;50.928;7.084;2024-03-08T15:13:47;15.30;42.50
37560;DHT22;23398;50.928;7.084;2024-03-08T15:16:16;15.30;42.60
37560;DHT22;23398;50.928;7.084;2024-03-08T15:18:44;15.30;42.50
37560;DHT22;23398;50.928;7.084;2024-03-08T15:21:14;15.30;42.50
37560;DHT22;23398;50.928;7.084;2024-03-08T15:23:46;15.30;42.50
37560;DHT22;23398;50.928;7.084;2024-03-08T15:26:18;15.30;42.70
37560;DHT22;23398;50.928;7.084;2024-03-08T15:28:44;15.40;42.90
37560;DHT22;23398;50.928;7.084;2024-03-08T15:31:11;15.40;42.90
37560;DHT22;23398;50.928;7.084;2024-03-08T15:33:39;15.50;43.00
37560;DHT22;23398;50.928;7.084;2024-03-08T15:36:14;15.50;42.80
37560;DHT22;23398;50.928;7.084;2024-03-08T15:38:44;15.60;42.70
37560;DHT22;23398;50.928;7.084;2024-03-08T15:41:12;15.70;42.50
37560;DHT22;23398;50.928;7.084;2024-03-08T15:43:39;15.70;42.40
37560;DHT22;23398;50.928;7.084;2024-03-08T15:46:06;15.70;42.20